Time;durP1;ratioP1;P1;durP2;ratioP2;P2;SDS_P1;SDS_P2;PMS_P1;PMS_P2;Temp;Humidity;BMP_temperature;BMP_pressure;BME280_temperature;BME280_humidity;BME280_pressure;Samples;Min_cycle;Max_cycle;Signal;HPM_P1;HPM_P2
2023/10/16 00:01:09;;;;;;;0.20;0.20;;;;;;;;;;4985958;28;20434;-56
2023/10/16 00:03:38;;;;;;;0.20;0.20;;;;;;;;;;4985338;28;20054;-56
2023/10/16 00:06:05;;;;;;;0.50;0.40;;;;;;;;;;4984554;28;20153;-56
2023/10/16 00:08:33;;;;;;;0.52;0.28;;;;;;;;;;4985576;28;20133;-55
2023/10/16 00:11:01;;;;;;;0.10;0.10;;;;;;;;;;4985969;28;20041;-56
2023/10/16 00:13:27;;;;;;;0.28;0.10;;;;;;;;;;4985722;28;20046;-56
2023/10/16 00:15:54;;;;;;;0.40;0.30;;;;;;;;;;4986211;28;20049;-56
2023/10/16 00:18:23;;;;;;;0.47;0.20;;;;;;;;;;4983806;28;20042;-56
2023/10/16 00:20:56;;;;;;;0.10;0.10;;;;;;;;;;4985357;28;20050;-56
2023/10/16 00:23:25;;;;;;;0.35;0.20;;;;;;;;;;4984244;28;20077;-56
2023/10/16 00:25:52;;;;;;;0.30;0.30;;;;;;;;;;4983890;28;20642;-55
2023/10/16 00:28:21;;;;;;;0.10;0.10;;;;;;;;;;4983890;28;20486;-56
2023/10/16 00:30:47;;;;;;;0.40;0.17;;;;;;;;;;4985210;28;20088;-56
2023/10/16 00:33:14;;;;;;;0.40;0.30;;;;;;;;;;4985990;28;20050;-55
2023/10/16 00:35:41;;;;;;;0.40;0.17;;;;;;;;;;4985507;28;20038;-56
2023/10/16 00:38:13;;;;;;;0.13;0.10;;;;;;;;;;4985564;28;20509;-56
2023/10/16 00:43:28;;;;;;;0.30;0.17;;;;;;;;;;4984050;28;20046;-55
2023/10/16 00:46:08;;;;;;;0.10;0.10;;;;;;;;;;4985097;28;20042;-56
2023/10/16 00:48:35;;;;;;;0.93;0.20;;;;;;;;;;4984178;28;20172;-55
2023/10/16 00:51:16;;;;;;;0.80;0.38;;;;;;;;;;4985650;28;20046;-55
2023/10/16 00:53:42;;;;;;;1.10;0.50;;;;;;;;;;4984628;28;20046;-54
2023/10/16 00:56:12;;;;;;;0.82;0.20;;;;;;;;;;4985479;28;20509;-56
2023/10/16 00:58:38;;;;;;;0.88;0.30;;;;;;;;;;4984694;28;20081;-57
2023/10/16 01:01:09;;;;;;;0.35;0.10;;;;;;;;;;4985059;28;20403;-55
2023/10/16 01:03:36;;;;;;;1.00;0.40;;;;;;;;;;4984951;28;20058;-56
2023/10/16 01:06:03;;;;;;;0.68;0.20;;;;;;;;;;4984705;28;20108;-56
2023/10/16 01:08:29;;;;;;;0.47;0.32;;;;;;;;;;4984219;28;20042;-55
2023/10/16 01:10:57;;;;;;;0.30;0.20;;;;;;;;;;4985202;28;20038;-55
2023/10/16 01:13:28;;;;;;;0.30;0.20;;;;;;;;;;4984257;28;21585;-55
2023/10/16 01:15:56;;;;;;;0.10;0.10;;;;;;;;;;4985047;28;20046;-56
2023/10/16 01:18:23;;;;;;;1.60;0.13;;;;;;;;;;4984924;28;20046;-56
2023/10/16 01:20:50;;;;;;;0.00;0.00;;;;;;;;;;4983900;28;20457;-55
2023/10/16 01:23:16;;;;;;;0.00;0.00;;;;;;;;;;4984724;28;20068;-56
2023/10/16 01:25:43;;;;;;;0.00;0.00;;;;;;;;;;4984676;28;20069;-56
2023/10/16 01:28:10;;;;;;;0.10;0.10;;;;;;;;;;4984157;28;20046;-56
2023/10/16 01:30:40;;;;;;;0.05;0.05;;;;;;;;;;4984005;28;20141;-56
2023/10/16 01:33:07;;;;;;;0.20;0.05;;;;;;;;;;4983636;28;20057;-56
2023/10/16 01:35:36;;;;;;;0.30;0.00;;;;;;;;;;4983750;28;20490;-56
2023/10/16 01:38:08;;;;;;;1.45;0.25;;;;;;;;;;4984604;28;20045;-55
2023/10/16 01:40:37;;;;;;;0.40;0.38;;;;;;;;;;4983571;28;20406;-56
2023/10/16 01:43:05;;;;;;;0.13;0.10;;;;;;;;;;4983990;28;20078;-56
2023/10/16 01:45:31;;;;;;;0.08;0.03;;;;;;;;;;4984441;28;20042;-56
2023/10/16 01:47:58;;;;;;;0.00;0.00;;;;;;;;;;4984601;28;20046;-56
2023/10/16 01:50:26;;;;;;;1.17;0.10;;;;;;;;;;4982872;28;20042;-56
2023/10/16 01:52:54;;;;;;;0.70;0.20;;;;;;;;;;4984627;28;20252;-56
2023/10/16 01:55:21;;;;;;;0.00;0.00;;;;;;;;;;4985247;28;20395;-56
2023/10/16 01:57:47;;;;;;;0.10;0.10;;;;;;;;;;4984506;28;20046;-56
2023/10/16 02:00:24;;;;;;;0.03;0.03;;;;;;;;;;4984528;28;20546;-55
2023/10/16 02:02:50;;;;;;;1.52;0.40;;;;;;;;;;4983564;28;20840;-56
2023/10/16 02:05:16;;;;;;;0.10;0.10;;;;;;;;;;4983039;28;20038;-55
2023/10/16 02:07:43;;;;;;;1.23;0.43;;;;;;;;;;4984200;28;20141;-56
2023/10/16 02:10:12;;;;;;;1.05;0.40;;;;;;;;;;4983930;28;20468;-55
2023/10/16 02:12:39;;;;;;;0.28;0.10;;;;;;;;;;4984114;28;20050;-56
2023/10/16 02:15:08;;;;;;;0.20;0.10;;;;;;;;;;4985146;28;20046;-56
2023/10/16 02:17:37;;;;;;;0.13;0.13;;;;;;;;;;4983336;28;20682;-54
2023/10/16 02:20:11;;;;;;;0.43;0.05;;;;;;;;;;4984954;28;20046;-55
2023/10/16 02:22:37;;;;;;;0.10;0.10;;;;;;;;;;4984251;28;20093;-56
2023/10/16 02:25:08;;;;;;;0.10;0.10;;;;;;;;;;4984122;28;20464;-55
2023/10/16 02:27:34;;;;;;;0.10;0.10;;;;;;;;;;4984032;28;20042;-55
2023/10/16 02:30:15;;;;;;;0.00;0.00;;;;;;;;;;4984946;28;20039;-56
2023/10/16 02:32:42;;;;;;;1.30;0.20;;;;;;;;;;4982801;28;20050;-57
2023/10/16 02:35:13;;;;;;;0.70;0.20;;;;;;;;;;4983396;28;20529;-57
2023/10/16 02:37:40;;;;;;;0.17;0.10;;;;;;;;;;4983390;28;20850;-57
2023/10/16 02:40:10;;;;;;;1.15;0.20;;;;;;;;;;4984391;28;20062;-55
2023/10/16 02:42:38;;;;;;;0.25;0.20;;;;;;;;;;4984539;28;20082;-56
2023/10/16 02:45:17;;;;;;;0.20;0.20;;;;;;;;;;4983644;28;20038;-57
2023/10/16 02:47:43;;;;;;;1.50;0.20;;;;;;;;;;4985747;28;20042;-57
2023/10/16 02:50:14;;;;;;;0.43;0.10;;;;;;;;;;4988325;28;20039;-57
2023/10/16 02:52:40;;;;;;;0.70;0.10;;;;;;;;;;4987764;28;20050;-57
2023/10/16 02:55:07;;;;;;;0.40;0.30;;;;;;;;;;4988575;28;20074;-58
2023/10/16 02:57:33;;;;;;;1.17;0.20;;;;;;;;;;4987796;28;20044;-57
2023/10/16 02:59:59;;;;;;;1.17;0.30;;;;;;;;;;4988138;28;20069;-57
2023/10/16 03:02:27;;;;;;;0.10;0.10;;;;;;;;;;4987368;28;20124;-56
2023/10/16 03:04:56;;;;;;;0.20;0.20;;;;;;;;;;4988244;28;20570;-56
2023/10/16 03:07:22;;;;;;;3.03;0.85;;;;;;;;;;4986825;28;20442;-57
2023/10/16 03:09:52;;;;;;;1.08;0.52;;;;;;;;;;4987929;28;20065;-57
2023/10/16 03:12:21;;;;;;;0.90;0.60;;;;;;;;;;4985418;28;20564;-57
2023/10/16 03:14:57;;;;;;;1.90;0.35;;;;;;;;;;4987702;28;20458;-57
2023/10/16 03:17:26;;;;;;;0.65;0.20;;;;;;;;;;4989076;28;20042;-56
2023/10/16 03:19:55;;;;;;;0.70;0.35;;;;;;;;;;4987783;28;20038;-56
2023/10/16 03:22:21;;;;;;;0.82;0.20;;;;;;;;;;4983989;28;20042;-56
2023/10/16 03:24:47;;;;;;;0.65;0.17;;;;;;;;;;4988130;28;20449;-55
2023/10/16 03:27:27;;;;;;;0.93;0.22;;;;;;;;;;4988280;28;20046;-56
2023/10/16 03:29:54;;;;;;;0.43;0.30;;;;;;;;;;4967583;28;20058;-57
2023/10/16 03:32:20;;;;;;;0.10;0.10;;;;;;;;;;4988897;28;20069;-56
2023/10/16 03:34:46;;;;;;;0.25;0.20;;;;;;;;;;4970365;28;20050;-56
2023/10/16 03:37:14;;;;;;;0.22;0.22;;;;;;;;;;4987582;28;20824;-56
2023/10/16 03:39:41;;;;;;;0.15;0.10;;;;;;;;;;4987991;28;20073;-56
2023/10/16 03:42:11;;;;;;;0.65;0.40;;;;;;;;;;4987183;28;20931;-56
2023/10/16 03:44:39;;;;;;;0.00;0.00;;;;;;;;;;4988458;28;20066;-56
2023/10/16 03:47:06;;;;;;;0.20;0.10;;;;;;;;;;4988611;28;20046;-56
2023/10/16 03:49:32;;;;;;;0.45;0.10;;;;;;;;;;4983713;28;20038;-56
2023/10/16 03:52:00;;;;;;;0.20;0.20;;;;;;;;;;4986953;28;20553;-56
2023/10/16 03:54:35;;;;;;;0.20;0.10;;;;;;;;;;4986683;28;20050;-56
2023/10/16 03:57:01;;;;;;;0.60;0.30;;;;;;;;;;4986241;28;20157;-56
2023/10/16 03:59:29;;;;;;;0.22;0.10;;;;;;;;;;4981668;28;20066;-56
2023/10/16 04:01:56;;;;;;;0.10;0.10;;;;;;;;;;4986668;28;20554;-55
2023/10/16 04:04:26;;;;;;;0.10;0.10;;;;;;;;;;4985977;28;20034;-56
2023/10/16 04:07:01;;;;;;;0.10;0.10;;;;;;;;;;4984939;28;20042;-56
2023/10/16 04:09:32;;;;;;;0.10;0.10;;;;;;;;;;4985107;28;20156;-56
2023/10/16 04:11:59;;;;;;;0.57;0.10;;;;;;;;;;4987292;28;20050;-56
2023/10/16 04:14:44;;;;;;;0.28;0.10;;;;;;;;;;4987562;28;20046;-57
2023/10/16 04:17:11;;;;;;;0.75;0.20;;;;;;;;;;4987082;28;20042;-57
2023/10/16 04:22:25;;;;;;;0.43;0.10;;;;;;;;;;4985881;28;20125;-56
2023/10/16 04:24:54;;;;;;;0.65;0.20;;;;;;;;;;4986045;28;20038;-56
2023/10/16 04:29:49;;;;;;;0.30;0.20;;;;;;;;;;4985160;28;20138;-56
2023/10/16 04:35:29;;;;;;;0.40;0.20;;;;;;;;;;4986421;28;20058;-55
2023/10/16 04:37:54;;;;;;;0.80;0.10;;;;;;;;;;4985098;28;20046;-56
2023/10/16 04:43:15;;;;;;;1.27;0.15;;;;;;;;;;4983234;28;20046;-56
2023/10/16 04:45:59;;;;;;;0.05;0.05;;;;;;;;;;4984455;28;20057;-57
2023/10/16 04:51:16;;;;;;;0.00;0.00;;;;;;;;;;4985755;28;20066;-56
2023/10/16 04:53:48;;;;;;;0.08;0.05;;;;;;;;;;4983153;28;20047;-56
2023/10/16 04:56:30;;;;;;;;;;;;;;;;;;4967631;28;20081;-56
2023/10/16 04:59:11;;;;;;;0.40;0.20;;;;;;;;;;4984778;28;19956;-54
2023/10/16 05:02:06;;;;;;;0.10;0.10;;;;;;;;;;4985039;28;20123;-56
2023/10/16 05:07:34;;;;;;;0.20;0.20;;;;;;;;;;4981869;28;20042;-56
2023/10/16 05:10:17;;;;;;;0.40;0.20;;;;;;;;;;4985095;28;20091;-56
2023/10/16 05:15:51;;;;;;;1.35;0.10;;;;;;;;;;4983602;28;20050;-57
2023/10/16 05:18:42;;;;;;;0.10;0.10;;;;;;;;;;4985222;28;20042;-57
2023/10/16 05:21:51;;;;;;;0.03;0.03;;;;;;;;;;4983691;28;20038;-56
2023/10/16 06:16:20;;;;;;;0.30;0.30;;;;;;;;;;4980883;28;20042;-57
2023/10/16 06:18:49;;;;;;;0.20;0.10;;;;;;;;;;4982514;28;20042;-57
2023/10/16 06:21:15;;;;;;;0.28;0.20;;;;;;;;;;4963636;28;20049;-56
2023/10/16 06:23:48;;;;;;;0.20;0.20;;;;;;;;;;4966730;28;20051;-56
2023/10/16 06:26:14;;;;;;;;;;;;;;;;;;4984050;28;20034;-57
2023/10/16 06:28:47;;;;;;;0.17;0.10;;;;;;;;;;4986314;28;19918;-56
2023/10/16 06:31:14;;;;;;;0.10;0.10;;;;;;;;;;4985842;28;20074;-56
2023/10/16 06:33:41;;;;;;;0.52;0.15;;;;;;;;;;4984286;28;20054;-56
2023/10/16 06:36:10;;;;;;;0.52;0.10;;;;;;;;;;4985467;28;20077;-57
2023/10/16 06:38:36;;;;;;;0.17;0.00;;;;;;;;;;4985258;28;20082;-56
2023/10/16 06:41:02;;;;;;;0.52;0.10;;;;;;;;;;4986992;28;20046;-57
2023/10/16 06:43:28;;;;;;;0.10;0.10;;;;;;;;;;4986307;28;20413;-56
2023/10/16 06:45:58;;;;;;;0.15;0.10;;;;;;;;;;4980509;28;20478;-56
2023/10/16 06:48:27;;;;;;;0.43;0.32;;;;;;;;;;4990637;28;20050;-56
2023/10/16 06:50:54;;;;;;;0.15;0.10;;;;;;;;;;4987199;28;20130;-57
2023/10/16 06:53:23;;;;;;;0.10;0.10;;;;;;;;;;4988721;28;20042;-56
2023/10/16 06:55:53;;;;;;;0.20;0.15;;;;;;;;;;4954418;28;20583;-56
2023/10/16 06:58:21;;;;;;;0.03;0.03;;;;;;;;;;4986215;28;20042;-56
2023/10/16 07:00:47;;;;;;;0.35;0.13;;;;;;;;;;4985213;28;20057;-56
2023/10/16 07:03:14;;;;;;;0.10;0.10;;;;;;;;;;4988276;28;20043;-56
2023/10/16 07:05:43;;;;;;;0.30;0.30;;;;;;;;;;4985223;28;20042;-56
2023/10/16 07:08:27;;;;;;;0.30;0.30;;;;;;;;;;4969570;28;20057;-56
2023/10/16 07:10:56;;;;;;;0.60;0.28;;;;;;;;;;4988640;28;20095;-56
2023/10/16 07:13:31;;;;;;;0.20;0.20;;;;;;;;;;4987288;28;20038;-56
2023/10/16 07:16:00;;;;;;;0.50;0.20;;;;;;;;;;4986643;28;20074;-56
2023/10/16 07:18:27;;;;;;;0.10;0.10;;;;;;;;;;4968807;28;20053;-54
2023/10/16 07:20:59;;;;;;;0.40;0.22;;;;;;;;;;4986686;28;20048;-56
2023/10/16 07:23:25;;;;;;;0.45;0.20;;;;;;;;;;4968101;28;20129;-56
2023/10/16 07:25:55;;;;;;;0.38;0.30;;;;;;;;;;4985783;28;20038;-56
2023/10/16 07:28:21;;;;;;;1.50;0.68;;;;;;;;;;4983614;28;20415;-56
2023/10/16 07:30:48;;;;;;;0.43;0.40;;;;;;;;;;4986058;28;20117;-56
2023/10/16 07:33:17;;;;;;;0.40;0.30;;;;;;;;;;4985032;28;20039;-57
2023/10/16 07:35:46;;;;;;;0.20;0.20;;;;;;;;;;4985648;28;20069;-57
2023/10/16 07:38:22;;;;;;;0.30;0.20;;;;;;;;;;4982281;28;20048;-56
2023/10/16 07:40:51;;;;;;;0.30;0.20;;;;;;;;;;4985322;28;20042;-59
2023/10/16 07:43:26;;;;;;;0.10;0.10;;;;;;;;;;4970203;28;20108;-54
2023/10/16 07:46:19;;;;;;;0.13;0.13;;;;;;;;;;4988150;28;20047;-62
2023/10/16 07:48:44;;;;;;;0.08;0.08;;;;;;;;;;4983588;28;20069;-57
2023/10/16 07:51:10;;;;;;;0.25;0.20;;;;;;;;;;4990473;28;20065;-57
2023/10/16 07:53:37;;;;;;;0.28;0.10;;;;;;;;;;4985969;28;20061;-57
2023/10/16 07:56:17;;;;;;;0.10;0.10;;;;;;;;;;4985162;28;20445;-57
2023/10/16 07:58:54;;;;;;;0.03;0.03;;;;;;;;;;4967979;28;20081;-56
2023/10/16 08:01:36;;;;;;;0.38;0.32;;;;;;;;;;4979813;28;20042;-56
2023/10/16 08:04:02;;;;;;;0.47;0.20;;;;;;;;;;4980070;28;20121;-57
2023/10/16 08:06:28;;;;;;;0.30;0.20;;;;;;;;;;4980564;28;20129;-57
2023/10/16 08:11:42;;;;;;;0.63;0.63;;;;;;;;;;4980306;28;21592;-57
2023/10/16 08:14:09;;;;;;;0.70;0.50;;;;;;;;;;4982064;28;20478;-56
2023/10/16 08:16:35;;;;;;;0.93;0.60;;;;;;;;;;4980243;28;20089;-57
2023/10/16 08:19:01;;;;;;;0.45;0.45;;;;;;;;;;4979598;28;20057;-57
2023/10/16 08:21:28;;;;;;;0.73;0.50;;;;;;;;;;4977361;28;20441;-57
2023/10/16 08:23:55;;;;;;;0.35;0.32;;;;;;;;;;4977965;28;20395;-57
2023/10/16 08:26:28;;;;;;;0.20;0.20;;;;;;;;;;4981767;28;20515;-57
2023/10/16 08:29:51;;;;;;;0.20;0.20;;;;;;;;;;4984134;28;20137;-57
2023/10/16 08:32:27;;;;;;;0.30;0.10;;;;;;;;;;4978941;28;20467;-59
2023/10/16 08:34:35;;;;;;;0.20;0.20;;;;;;;;;;4967886;28;20121;-58
2023/10/16 08:37:05;;;;;;;0.30;0.30;;;;;;;;;;4984087;28;20426;-58
2023/10/16 08:39:36;;;;;;;0.32;0.20;;;;;;;;;;4983595;28;20089;-58
2023/10/16 08:42:11;;;;;;;0.22;0.20;;;;;;;;;;4967087;28;20050;-58
2023/10/16 08:44:37;;;;;;;0.28;0.28;;;;;;;;;;4981187;28;20478;-57
2023/10/16 08:49:30;;;;;;;0.30;0.30;;;;;;;;;;4983176;28;20414;-58
2023/10/16 08:52:03;;;;;;;0.40;0.20;;;;;;;;;;4983039;28;20465;-57
2023/10/16 08:54:45;;;;;;;0.10;0.10;;;;;;;;;;4980026;28;20049;-58
2023/10/16 08:57:12;;;;;;;0.32;0.20;;;;;;;;;;4974957;28;20042;-57
2023/10/16 08:59:38;;;;;;;0.10;0.10;;;;;;;;;;4974532;28;20058;-57
2023/10/16 09:02:11;;;;;;;0.17;0.10;;;;;;;;;;4978742;28;20554;-57
2023/10/16 09:04:41;;;;;;;0.20;0.10;;;;;;;;;;4974375;28;20070;-57
2023/10/16 09:07:07;;;;;;;0.00;0.00;;;;;;;;;;4982847;28;20038;-56
2023/10/16 09:09:33;;;;;;;0.20;0.20;;;;;;;;;;4983223;28;20490;-57
2023/10/16 09:12:10;;;;;;;0.30;0.10;;;;;;;;;;4982062;28;20042;-57
2023/10/16 09:14:37;;;;;;;0.63;0.10;;;;;;;;;;4981709;28;20046;-57
2023/10/16 09:17:06;;;;;;;0.38;0.17;;;;;;;;;;4963022;28;20063;-58
2023/10/16 09:19:45;;;;;;;1.10;0.30;;;;;;;;;;4977146;28;20413;-58
2023/10/16 09:22:13;;;;;;;0.20;0.20;;;;;;;;;;4979782;28;20053;-58
2023/10/16 09:24:44;;;;;;;0.52;0.10;;;;;;;;;;4980819;28;20042;-57
2023/10/16 09:27:17;;;;;;;0.30;0.20;;;;;;;;;;4959860;28;20046;-58
2023/10/16 09:29:56;;;;;;;0.05;0.05;;;;;;;;;;4979925;28;20038;-58
2023/10/16 09:32:28;;;;;;;0.35;0.17;;;;;;;;;;4984485;28;20062;-58
2023/10/16 09:34:58;;;;;;;0.10;0.10;;;;;;;;;;4984434;28;20096;-58
2023/10/16 09:37:24;;;;;;;0.10;0.10;;;;;;;;;;4982376;28;20042;-59
2023/10/16 09:39:52;;;;;;;0.10;0.10;;;;;;;;;;4962921;28;20038;-58
2023/10/16 09:42:24;;;;;;;0.15;0.10;;;;;;;;;;4981976;28;20521;-58
2023/10/16 09:44:59;;;;;;;0.20;0.03;;;;;;;;;;4983459;28;20050;-58
2023/10/16 09:47:25;;;;;;;0.10;0.10;;;;;;;;;;4980495;28;20144;-58
2023/10/16 09:49:55;;;;;;;0.00;0.00;;;;;;;;;;4983187;28;20046;-58
2023/10/16 09:52:22;;;;;;;0.50;0.15;;;;;;;;;;4977778;28;20034;-58
2023/10/16 09:54:48;;;;;;;0.10;0.10;;;;;;;;;;4980184;28;20585;-58
2023/10/16 09:57:18;;;;;;;0.03;0.03;;;;;;;;;;4977521;28;20093;-57
2023/10/16 09:59:44;;;;;;;0.20;0.15;;;;;;;;;;4979932;28;20038;-58
2023/10/16 10:02:18;;;;;;;0.10;0.10;;;;;;;;;;4980222;28;20046;-58
2023/10/16 10:05:09;;;;;;;0.00;0.00;;;;;;;;;;4966110;28;20049;-58
2023/10/16 10:07:37;;;;;;;0.00;0.00;;;;;;;;;;4983508;28;20065;-58
2023/10/16 10:11:04;;;;;;;0.00;0.00;;;;;;;;;;4983485;28;20050;-59
2023/10/16 10:12:56;;;;;;;0.00;0.00;;;;;;;;;;4985341;28;20064;-58
2023/10/16 10:15:26;;;;;;;0.00;0.00;;;;;;;;;;4983110;28;20038;-57
2023/10/16 10:17:54;;;;;;;0.10;0.00;;;;;;;;;;4981192;28;20351;-58
2023/10/16 10:20:24;;;;;;;0.20;0.10;;;;;;;;;;4982553;28;20043;-58
2023/10/16 10:22:56;;;;;;;2.08;0.13;;;;;;;;;;4961491;28;20067;-58
2023/10/16 10:25:25;;;;;;;0.57;0.00;;;;;;;;;;4976850;28;20042;-58
2023/10/16 10:27:55;;;;;;;0.30;0.10;;;;;;;;;;4978910;28;20518;-58
2023/10/16 10:30:25;;;;;;;0.00;0.00;;;;;;;;;;4981905;28;20386;-59
2023/10/16 10:32:59;;;;;;;0.10;0.00;;;;;;;;;;4986701;28;20235;-58
2023/10/16 10:35:28;;;;;;;0.00;0.00;;;;;;;;;;4988051;28;20054;-57
2023/10/16 10:38:07;;;;;;;0.40;0.28;;;;;;;;;;4986109;28;20404;-57
2023/10/16 10:40:35;;;;;;;0.10;0.10;;;;;;;;;;4984969;28;20088;-57
2023/10/16 10:43:03;;;;;;;0.57;0.10;;;;;;;;;;4986545;28;20047;-65
2023/10/16 10:45:34;;;;;;;0.40;0.10;;;;;;;;;;4986768;28;20475;-57
2023/10/16 10:48:06;;;;;;;0.35;0.10;;;;;;;;;;4986868;28;20038;-58
2023/10/16 10:50:32;;;;;;;;;;;;;;;;;;4987219;28;20046;-57
2023/10/16 10:53:00;;;;;;;0.47;0.20;;;;;;;;;;4986540;28;19953;-57
2023/10/16 10:55:27;;;;;;;0.10;0.10;;;;;;;;;;4987994;28;20054;-57
2023/10/16 10:58:11;;;;;;;0.70;0.20;;;;;;;;;;4969277;28;20078;-58
2023/10/16 11:00:43;;;;;;;0.28;0.10;;;;;;;;;;4984807;28;20042;-58
2023/10/16 11:03:10;;;;;;;0.25;0.20;;;;;;;;;;4986674;28;20055;-58
2023/10/16 11:05:41;;;;;;;0.08;0.00;;;;;;;;;;4986120;28;20570;-58
2023/10/16 11:10:38;;;;;;;0.10;0.10;;;;;;;;;;4985605;28;20054;-58
2023/10/16 11:13:04;;;;;;;0.30;0.20;;;;;;;;;;4985643;28;20488;-58
2023/10/16 11:15:31;;;;;;;0.45;0.10;;;;;;;;;;4983906;28;20066;-58
2023/10/16 11:18:05;;;;;;;0.10;0.05;;;;;;;;;;4970287;28;20052;-58
2023/10/16 11:20:32;;;;;;;1.75;0.20;;;;;;;;;;4985587;28;20034;-57
2023/10/16 11:22:58;;;;;;;0.50;0.30;;;;;;;;;;4987662;28;20045;-57
2023/10/16 11:25:31;;;;;;;0.25;0.10;;;;;;;;;;4986705;28;20050;-58
2023/10/16 11:28:07;;;;;;;0.35;0.20;;;;;;;;;;4982692;28;20038;-58
2023/10/16 11:30:38;;;;;;;0.30;0.10;;;;;;;;;;4986275;28;20054;-58
2023/10/16 11:33:04;;;;;;;0.10;0.10;;;;;;;;;;4983244;28;20048;-59
2023/10/16 11:35:34;;;;;;;0.30;0.10;;;;;;;;;;4969624;28;20050;-58
2023/10/16 11:38:04;;;;;;;0.20;0.20;;;;;;;;;;4980319;28;20042;-58
2023/10/16 11:40:39;;;;;;;0.10;0.10;;;;;;;;;;4986053;28;20120;-60
2023/10/16 12:04:16;;;;;;;0.50;0.30;;;;;;;;;;5093631;27;20477;-57
2023/10/16 12:06:44;;;;;;;0.20;0.20;;;;;;;;;;5076391;28;20440;-57
2023/10/16 12:09:13;;;;;;;0.30;0.28;;;;;;;;;;5079697;28;20060;-57
2023/10/16 12:11:42;;;;;;;0.10;0.10;;;;;;;;;;5077462;28;20052;-57
2023/10/16 12:14:12;;;;;;;0.20;0.13;;;;;;;;;;5076038;28;20044;-56
2023/10/16 12:16:38;;;;;;;0.10;0.10;;;;;;;;;;5076201;28;20044;-56
2023/10/16 12:19:05;;;;;;;0.60;0.20;;;;;;;;;;5080687;28;20537;-60
2023/10/16 12:21:31;;;;;;;0.95;0.20;;;;;;;;;;5077914;28;20135;-57
2023/10/16 12:23:57;;;;;;;0.10;0.10;;;;;;;;;;5076981;28;20119;-56
2023/10/16 12:26:24;;;;;;;0.10;0.10;;;;;;;;;;5080060;28;20051;-57
2023/10/16 12:28:51;;;;;;;0.13;0.10;;;;;;;;;;5077554;28;20048;-57
2023/10/16 12:31:17;;;;;;;0.10;0.10;;;;;;;;;;5077712;28;20056;-57
2023/10/16 12:33:43;;;;;;;0.10;0.10;;;;;;;;;;5077171;28;20037;-57
2023/10/16 12:36:10;;;;;;;0.43;0.10;;;;;;;;;;5079818;28;20389;-56
2023/10/16 12:38:37;;;;;;;0.20;0.10;;;;;;;;;;5077544;28;20078;-58
2023/10/16 12:41:05;;;;;;;0.10;0.10;;;;;;;;;;5079068;28;20048;-56
2023/10/16 12:43:31;;;;;;;0.10;0.10;;;;;;;;;;5071649;28;20056;-57
2023/10/16 12:45:57;;;;;;;0.00;0.00;;;;;;;;;;5075185;28;20094;-60
2023/10/16 12:48:28;;;;;;;0.00;0.00;;;;;;;;;;5075647;28;20036;-60
2023/10/16 12:50:59;;;;;;;0.10;0.10;;;;;;;;;;5076824;28;20051;-60
2023/10/16 12:53:25;;;;;;;0.13;0.10;;;;;;;;;;5079313;28;20045;-60
2023/10/16 12:55:55;;;;;;;0.10;0.05;;;;;;;;;;5075732;28;20040;-59
2023/10/16 12:58:22;;;;;;;0.10;0.10;;;;;;;;;;5078823;28;20692;-60
2023/10/16 13:00:50;;;;;;;0.35;0.10;;;;;;;;;;5075566;28;20101;-60
2023/10/16 13:03:19;;;;;;;0.20;0.10;;;;;;;;;;5078572;28;20052;-60
2023/10/16 13:05:45;;;;;;;0.22;0.10;;;;;;;;;;5074768;28;20258;-60
2023/10/16 13:08:12;;;;;;;0.70;0.10;;;;;;;;;;5079950;28;20133;-59
2023/10/16 13:10:38;;;;;;;0.03;0.03;;;;;;;;;;5078486;28;20515;-60
2023/10/16 13:13:04;;;;;;;0.10;0.10;;;;;;;;;;5078736;28;20063;-59
2023/10/16 13:15:31;;;;;;;0.40;0.10;;;;;;;;;;5065607;28;20669;-59
2023/10/16 13:17:57;;;;;;;0.13;0.10;;;;;;;;;;5063438;28;20043;-59
2023/10/16 13:20:32;;;;;;;0.00;0.00;;;;;;;;;;5062725;28;20424;-59
2023/10/16 13:22:58;;;;;;;0.00;0.00;;;;;;;;;;5040427;28;20055;-59
2023/10/16 13:25:31;;;;;;;1.08;0.17;;;;;;;;;;5061384;28;20058;-59
2023/10/16 13:27:56;;;;;;;;;;;;;;;;;;5066455;28;20044;-60
2023/10/16 13:30:23;;;;;;;0.20;0.08;;;;;;;;;;5065368;28;20213;-60
2023/10/16 13:32:49;;;;;;;1.17;0.20;;;;;;;;;;5059934;28;20044;-60
2023/10/16 13:35:16;;;;;;;0.28;0.13;;;;;;;;;;5059059;28;20401;-60
2023/10/16 13:37:42;;;;;;;0.38;0.10;;;;;;;;;;5060260;28;20040;-60
2023/10/16 13:40:21;;;;;;;0.38;0.22;;;;;;;;;;5064220;28;20133;-59
2023/10/16 13:42:54;;;;;;;0.35;0.13;;;;;;;;;;5059697;28;20041;-59
2023/10/16 13:45:25;;;;;;;0.25;0.20;;;;;;;;;;5062638;28;20090;-59
2023/10/16 13:47:51;;;;;;;0.10;0.10;;;;;;;;;;5062029;28;20436;-59
2023/10/16 13:50:24;;;;;;;0.95;0.20;;;;;;;;;;5063047;28;20025;-59
2023/10/16 13:52:51;;;;;;;0.95;0.30;;;;;;;;;;5061170;28;20093;-60
2023/10/16 13:55:20;;;;;;;0.70;0.40;;;;;;;;;;5064027;28;20036;-60
2023/10/16 13:57:47;;;;;;;0.10;0.10;;;;;;;;;;5044783;28;20404;-59
2023/10/16 14:00:29;;;;;;;0.10;0.10;;;;;;;;;;5059818;28;20052;-59
2023/10/16 14:05:52;;;;;;;0.30;0.15;;;;;;;;;;5063207;28;20032;-60
2023/10/16 14:08:25;;;;;;;0.10;0.10;;;;;;;;;;5057707;28;20817;-60
2023/10/16 14:10:52;;;;;;;0.10;0.00;;;;;;;;;;5063413;28;20120;-59
2023/10/16 14:13:26;;;;;;;1.25;0.40;;;;;;;;;;5063045;28;20048;-60
2023/10/16 14:15:52;;;;;;;0.25;0.10;;;;;;;;;;5061646;28;21005;-60
2023/10/16 14:18:24;;;;;;;0.43;0.30;;;;;;;;;;5064283;28;20110;-60
2023/10/16 14:20:51;;;;;;;1.02;0.30;;;;;;;;;;5057602;28;20072;-59
2023/10/16 14:23:18;;;;;;;0.20;0.20;;;;;;;;;;5063041;28;20054;-60
2023/10/16 14:25:48;;;;;;;0.13;0.10;;;;;;;;;;5060471;28;20040;-60
2023/10/16 14:28:33;;;;;;;0.28;0.20;;;;;;;;;;5062408;28;20036;-59
2023/10/16 14:31:04;;;;;;;0.20;0.10;;;;;;;;;;5064261;28;20058;-60
2023/10/16 14:33:30;;;;;;;0.00;0.00;;;;;;;;;;5063154;28;20044;-59
2023/10/16 14:35:59;;;;;;;0.00;0.00;;;;;;;;;;5060758;28;20393;-59
2023/10/16 14:38:26;;;;;;;0.00;0.00;;;;;;;;;;5062066;28;20443;-59
2023/10/16 14:40:55;;;;;;;0.75;0.00;;;;;;;;;;5060597;28;20059;-58
2023/10/16 14:43:22;;;;;;;1.02;0.10;;;;;;;;;;5063470;28;20036;-59
2023/10/16 14:45:48;;;;;;;0.20;0.20;;;;;;;;;;5063081;28;20044;-60
2023/10/16 14:48:18;;;;;;;0.35;0.20;;;;;;;;;;5063375;28;20064;-60
2023/10/16 14:50:45;;;;;;;0.50;0.17;;;;;;;;;;5060908;28;20040;-59
2023/10/16 14:53:11;;;;;;;0.38;0.10;;;;;;;;;;5062567;28;20046;-59
2023/10/16 14:55:37;;;;;;;0.10;0.10;;;;;;;;;;5063290;28;20496;-59
2023/10/16 14:58:05;;;;;;;0.60;0.10;;;;;;;;;;5061948;28;20702;-60
2023/10/16 15:00:41;;;;;;;0.35;0.13;;;;;;;;;;5060386;28;20400;-59
2023/10/16 15:03:10;;;;;;;0.75;0.17;;;;;;;;;;5060533;28;20055;-59
2023/10/16 15:05:39;;;;;;;0.10;0.10;;;;;;;;;;5060143;28;20041;-60
2023/10/16 15:08:05;;;;;;;0.10;0.00;;;;;;;;;;5060063;28;20051;-59
2023/10/16 15:10:32;;;;;;;0.00;0.00;;;;;;;;;;5062756;28;20453;-59
2023/10/16 15:12:59;;;;;;;0.10;0.10;;;;;;;;;;5074723;28;20504;-60
2023/10/16 15:15:25;;;;;;;0.13;0.10;;;;;;;;;;5062243;28;20078;-58
2023/10/16 15:17:54;;;;;;;0.45;0.20;;;;;;;;;;5061733;28;20393;-60
2023/10/16 15:20:20;;;;;;;0.43;0.30;;;;;;;;;;5060803;28;20036;-60
2023/10/16 15:22:46;;;;;;;0.20;0.20;;;;;;;;;;5060068;28;20094;-59
2023/10/16 15:25:13;;;;;;;0.30;0.30;;;;;;;;;;5054695;28;20036;-59
2023/10/16 15:27:43;;;;;;;0.57;0.55;;;;;;;;;;5063050;28;20041;-59
2023/10/16 15:30:15;;;;;;;0.40;0.40;;;;;;;;;;5062794;28;20036;-59
2023/10/16 15:32:43;;;;;;;0.65;0.57;;;;;;;;;;5060702;28;20075;-59
2023/10/16 15:35:10;;;;;;;0.40;0.40;;;;;;;;;;5061412;28;20562;-59
2023/10/16 15:37:40;;;;;;;0.70;0.38;;;;;;;;;;5060629;28;20040;-59
2023/10/16 15:40:07;;;;;;;0.50;0.32;;;;;;;;;;5061215;28;20045;-59
2023/10/16 15:42:33;;;;;;;0.68;0.50;;;;;;;;;;5058603;28;20294;-60
2023/10/16 15:45:00;;;;;;;0.47;0.25;;;;;;;;;;5058479;28;20153;-60
2023/10/16 15:47:27;;;;;;;0.52;0.40;;;;;;;;;;5059021;28;20170;-59
2023/10/16 15:49:54;;;;;;;0.40;0.35;;;;;;;;;;5061015;28;20048;-60
2023/10/16 15:52:21;;;;;;;0.20;0.20;;;;;;;;;;5061303;28;20076;-59
2023/10/16 15:54:48;;;;;;;0.43;0.20;;;;;;;;;;5061688;28;20052;-60
2023/10/16 15:57:13;;;;;;;0.30;0.30;;;;;;;;;;5063465;28;20082;-59
2023/10/16 15:59:39;;;;;;;1.08;0.30;;;;;;;;;;5044640;28;20119;-59
2023/10/16 16:02:06;;;;;;;0.30;0.13;;;;;;;;;;5063663;28;20050;-59
2023/10/16 16:04:32;;;;;;;0.50;0.28;;;;;;;;;;5063754;28;20055;-59
2023/10/16 16:07:03;;;;;;;1.70;0.43;;;;;;;;;;5063411;28;20148;-59
2023/10/16 16:09:30;;;;;;;0.47;0.28;;;;;;;;;;5064205;28;20522;-59
2023/10/16 16:11:58;;;;;;;0.17;0.17;;;;;;;;;;5063036;28;20044;-59
2023/10/16 16:14:24;;;;;;;0.30;0.20;;;;;;;;;;5063549;28;20041;-59
2023/10/16 16:16:51;;;;;;;0.20;0.20;;;;;;;;;;5063445;28;20050;-59
2023/10/16 16:19:19;;;;;;;0.32;0.20;;;;;;;;;;5062821;28;20048;-59
2023/10/16 16:21:46;;;;;;;0.43;0.10;;;;;;;;;;5062727;28;20519;-59
2023/10/16 16:24:12;;;;;;;0.30;0.20;;;;;;;;;;5046000;28;20048;-59
2023/10/16 16:26:38;;;;;;;0.57;0.30;;;;;;;;;;5059211;28;20045;-59
2023/10/16 16:29:05;;;;;;;0.25;0.25;;;;;;;;;;5060846;28;20123;-58
2023/10/16 16:31:32;;;;;;;0.90;0.60;;;;;;;;;;5060743;28;20564;-58
2023/10/16 16:33:58;;;;;;;1.45;0.40;;;;;;;;;;5061967;28;20040;-58
2023/10/16 16:36:24;;;;;;;0.35;0.35;;;;;;;;;;5061925;28;20040;-58
2023/10/16 16:38:55;;;;;;;0.50;0.25;;;;;;;;;;5061684;28;20059;-59
2023/10/16 16:41:22;;;;;;;0.30;0.30;;;;;;;;;;5043556;28;20043;-59
2023/10/16 16:43:48;;;;;;;0.40;0.30;;;;;;;;;;5059395;28;20048;-59